.
WxDataArchive / Data Records for 2013-05-05
2013-05-04 May 2013 2013-05-06

Data Records for Sunday, 05 May 2013

Time	Temp	Chill	HIndex	Humid	Dewpt	 Wind 	HiWind	WindDir	Rain 	Barom 
-----	----	-----	------	-----	-----	------	------	-------	-----	----- 
00:00	57.5	57.5	57.5	59	43.3	1	4	90	0.00	30.011 
00:05	57.3	57.3	57.3	59	43.1	1	5	90	0.00	30.011 
00:10	57.2	57.2	57.2	59	43.0	0	3	90	0.00	30.011 
00:15	57.0	57.0	57.0	59	42.8	1	4	90	0.00	30.011 
00:20	56.9	56.9	56.9	60	43.2	1	5	112	0.00	30.011 
00:25	56.7	56.7	56.7	60	43.0	1	5	112	0.00	30.011 
00:30	56.5	56.5	56.5	61	43.2	0	3	112	0.00	30.010 
00:35	56.3	56.3	56.3	61	43.0	0	3	112	0.00	30.010 
00:40	56.0	56.0	56.0	62	43.2	0	1	112	0.00	30.010 
00:45	55.9	55.9	55.9	62	43.1	0	2	112	0.00	30.012 
00:50	55.7	55.7	55.7	62	42.9	0	1	112	0.00	30.012 
00:55	55.4	55.4	55.4	62	42.6	0	1	112	0.00	30.012 
01:00	55.3	55.3	55.3	62	42.5	0	2	112	0.00	30.013 
01:05	55.1	55.1	55.1	63	42.7	0	2	112	0.00	30.013 
01:10	55.1	55.1	55.1	63	42.7	0	2	112	0.00	30.013 
01:15	55.0	55.0	55.0	63	42.6	0	2	112	0.00	30.010 
01:20	54.8	54.8	54.8	64	42.9	0	1	112	0.00	30.010 
01:25	54.7	54.7	54.7	64	42.8	0	2	112	0.00	30.010 
01:30	54.5	54.5	54.5	64	42.6	1	4	112	0.00	30.004 
01:35	54.5	54.5	54.5	64	42.6	1	5	158	0.00	30.004 
01:40	54.7	54.7	54.7	63	42.4	1	4	90	0.00	30.004 
01:45	54.7	54.7	54.7	64	42.8	0	2	90	0.00	30.004 
01:50	54.5	54.5	54.5	64	42.6	1	4	90	0.00	30.004 
01:55	54.4	54.4	54.4	64	42.5	0	2	90	0.00	30.004 
02:00	54.2	54.2	54.2	65	42.7	0	3	90	0.00	30.001 
02:05	54.1	54.1	54.1	65	42.6	0	1	90	0.00	30.001 
02:10	53.9	53.9	53.9	65	42.4	0	1	90	0.00	30.001 
02:15	53.8	53.8	53.8	66	42.7	0	3	90	0.00	29.997 
02:20	53.8	53.8	53.8	66	42.7	0	3	90	0.00	29.997 
02:25	53.6	53.6	53.6	65	42.1	0	3	90	0.00	29.997 
02:30	53.8	53.8	53.8	65	42.3	0	3	90	0.00	29.991 
02:35	53.6	53.6	53.6	65	42.1	1	4	90	0.00	29.991 
02:40	53.8	53.8	53.8	65	42.3	1	3	90	0.00	29.991 
02:45	53.6	53.6	53.6	65	42.1	1	4	90	0.00	29.988 
02:50	53.6	53.6	53.6	65	42.1	1	4	90	0.00	29.988 
02:55	53.5	53.5	53.5	66	42.4	0	2	90	0.00	29.988 
03:00	53.3	53.3	53.3	66	42.2	0	3	90	0.00	29.987 
03:05	53.2	53.2	53.2	66	42.1	0	2	90	0.00	29.987 
03:10	53.1	53.1	53.1	67	42.4	0	1	90	0.00	29.987 
03:15	52.9	52.9	52.9	67	42.2	0	2	90	0.00	29.984 
03:20	52.8	52.8	52.8	68	42.5	0	1	90	0.00	29.984 
03:25	52.5	52.5	52.5	68	42.2	0	0	---	0.00	29.984 
03:30	52.2	52.2	52.2	69	42.3	0	1	90	0.00	29.984 
03:35	52.0	52.0	52.0	70	42.5	0	2	90	0.00	29.984 
03:40	52.0	52.0	52.0	69	42.1	1	5	90	0.00	29.984 
03:45	52.2	52.2	52.2	69	42.3	0	2	90	0.00	29.980 
03:50	52.2	52.2	52.2	69	42.3	1	5	90	0.00	29.980 
03:55	52.2	52.2	52.2	69	42.3	1	3	90	0.00	29.980 
04:00	52.2	52.2	52.2	69	42.3	1	4	90	0.00	29.982 
04:05	52.0	52.0	52.0	70	42.5	1	4	90	0.00	29.982 
04:10	51.9	51.9	51.9	70	42.4	1	4	90	0.00	29.982 
04:15	51.7	51.7	51.7	71	42.6	1	3	90	0.00	29.984 
04:20	51.6	51.6	51.6	71	42.5	1	3	90	0.00	29.984 
04:25	51.4	51.4	51.4	72	42.7	1	3	90	0.00	29.984 
04:30	51.3	51.3	51.3	72	42.6	1	3	90	0.00	29.985 
04:35	51.3	51.3	51.3	73	42.9	1	5	90	0.00	29.985 
04:40	51.1	51.1	51.1	73	42.7	1	3	90	0.00	29.985 
04:45	51.0	51.0	51.0	73	42.7	1	3	90	0.00	29.981 
04:50	50.8	50.8	50.8	73	42.5	1	3	90	0.00	29.981 
04:55	50.8	50.8	50.8	74	42.8	0	2	90	0.00	29.981 
05:00	50.7	50.7	50.7	74	42.7	1	3	90	0.00	29.984 
05:05	50.7	50.7	50.7	74	42.7	1	2	90	0.00	29.984 
05:10	50.7	50.7	50.7	74	42.7	0	2	90	0.00	29.984 
05:15	50.7	50.7	50.7	74	42.7	1	4	90	0.00	29.985 
05:20	50.7	50.7	50.7	74	42.7	1	3	90	0.00	29.985 
05:25	50.7	50.7	50.7	74	42.7	1	3	90	0.00	29.985 
05:30	50.7	50.7	50.7	74	42.7	1	3	90	0.00	29.987 
05:35	50.7	50.7	50.7	74	42.7	1	2	90	0.00	29.987 
05:40	50.7	50.7	50.7	74	42.7	1	4	90	0.00	29.987 
05:45	50.7	50.7	50.7	74	42.7	1	3	90	0.00	29.986 
05:50	50.5	50.5	50.5	74	42.5	1	3	90	0.00	29.986 
05:55	50.5	50.5	50.5	74	42.5	0	2	90	0.00	29.986 
06:00	50.4	50.4	50.4	74	42.4	1	3	90	0.00	29.986 
06:05	50.4	50.4	50.4	75	42.8	0	3	90	0.00	29.986 
06:10	50.2	50.2	50.2	75	42.6	0	2	90	0.00	29.986 
06:15	50.1	50.1	50.1	76	42.8	0	1	90	0.00	29.988 
06:20	49.9	49.9	49.9	76	42.6	0	1	90	0.00	29.988 
06:25	49.8	49.8	49.8	76	42.5	0	2	90	0.00	29.988 
06:30	49.8	49.8	49.8	77	42.9	0	2	90	0.00	29.987 
06:35	49.8	49.8	49.8	77	42.9	0	3	90	0.00	29.987 
06:40	49.8	49.8	49.8	77	42.9	0	1	90	0.00	29.987 
06:45	49.6	49.6	49.6	77	42.7	0	1	90	0.00	29.991 
06:50	49.8	49.8	49.8	77	42.9	0	2	90	0.00	29.991 
06:55	49.8	49.8	49.8	77	42.9	0	3	90	0.00	29.991 
07:00	49.9	49.9	49.9	77	43.0	0	2	90	0.00	29.992 
07:05	50.1	50.1	50.1	77	43.2	0	2	90	0.00	29.992 
07:10	50.2	50.2	50.2	77	43.3	0	3	90	0.00	29.992 
07:15	50.5	50.5	50.5	76	43.2	1	3	90	0.00	29.998 
07:20	50.8	50.8	50.8	76	43.5	1	3	90	0.00	29.998 
07:25	51.3	51.3	51.3	75	43.6	1	2	90	0.00	29.998 
07:30	51.7	51.7	51.7	74	43.7	1	3	90	0.00	30.002 
07:35	52.2	52.2	52.2	73	43.8	2	4	90	0.00	30.002 
07:40	52.9	52.9	52.9	72	44.1	1	3	90	0.00	30.002 
07:45	53.5	53.5	53.5	71	44.3	1	7	90	0.00	30.004 
07:50	54.1	54.1	54.1	70	44.5	2	5	90	0.00	30.004 
07:55	54.5	54.5	54.5	69	44.5	2	5	90	0.00	30.004 
08:00	55.1	55.1	55.1	69	45.1	1	3	90	0.00	30.002 
08:05	55.7	55.7	55.7	68	45.3	2	6	112	0.00	30.002 
08:10	56.3	56.3	56.3	67	45.5	2	4	112	0.00	30.002 
08:15	56.9	56.9	56.9	65	45.3	1	4	90	0.00	30.002 
08:20	57.2	57.2	57.2	66	45.9	2	4	90	0.00	30.002 
08:25	57.0	57.0	57.0	64	44.9	2	6	112	0.00	30.002 
08:30	56.7	56.7	56.7	65	45.1	2	4	112	0.00	30.003 
08:35	57.0	57.0	57.0	66	45.8	2	5	112	0.00	30.003 
08:40	57.8	57.8	57.8	64	45.7	2	5	90	0.00	30.003 
08:45	58.0	58.0	58.0	64	45.9	2	4	90	0.00	30.002 
08:50	58.3	58.3	58.3	64	46.2	3	6	90	0.00	30.002 
08:55	58.6	58.6	58.6	64	46.5	2	6	112	0.00	30.002 
09:00	58.7	58.7	58.7	62	45.7	3	6	112	0.00	30.002 
09:05	58.4	58.4	58.4	62	45.4	3	6	90	0.00	30.002 
09:10	58.4	58.4	58.4	61	45.0	3	7	90	0.00	30.002 
09:15	58.9	58.9	58.9	62	45.9	3	10	90	0.00	30.007 
09:20	59.3	59.3	59.3	60	45.4	3	11	90	0.00	30.007 
09:25	59.5	59.5	59.5	58	44.7	4	11	90	0.00	30.007 
09:30	59.2	59.2	59.2	61	45.8	3	10	90	0.00	30.011 
09:35	59.2	59.2	59.2	61	45.8	3	6	90	0.00	30.011 
09:40	59.5	59.5	59.5	60	45.6	3	9	112	0.00	30.011 
09:45	59.9	59.9	59.9	60	46.0	3	8	90	0.00	30.010 
09:50	60.4	60.4	60.4	59	46.0	3	10	90	0.00	30.010 
09:55	60.9	60.9	60.9	59	46.5	3	10	90	0.00	30.010 
10:00	61.2	61.2	61.2	57	45.8	4	10	90	0.00	30.013 
10:05	61.6	61.6	61.6	57	46.2	2	6	90	0.00	30.013 
10:10	61.8	61.8	61.8	58	46.9	4	9	90	0.00	30.013 
10:15	62.4	62.4	62.4	56	46.5	2	6	112	0.00	30.016 
10:20	62.7	62.7	62.7	54	45.8	3	9	112	0.00	30.016 
10:25	63.1	63.1	63.1	55	46.7	2	9	90	0.00	30.016 
10:30	63.7	63.7	63.7	54	46.7	3	7	112	0.00	30.016 
10:35	63.9	63.9	63.9	54	46.9	3	7	90	0.00	30.016 
10:40	63.9	63.9	63.9	53	46.4	4	12	90	0.00	30.016 
10:45	64.3	64.3	64.3	53	46.8	3	6	90	0.00	30.010 
10:50	64.5	64.5	64.5	51	46.0	3	7	90	0.00	30.010 
10:55	64.5	64.5	64.5	52	46.5	3	11	90	0.00	30.010 
11:00	64.7	64.7	64.7	50	45.6	5	11	112	0.00	30.013 
11:05	64.7	64.7	64.7	50	45.6	5	11	112	0.00	30.013 
11:10	64.8	64.8	64.8	50	45.7	4	10	90	0.00	30.013 
11:15	65.2	65.2	65.2	50	46.1	2	6	112	0.00	30.011 
11:20	65.0	65.0	65.0	51	46.4	3	9	90	0.00	30.011 
11:25	65.5	65.5	65.5	51	46.9	3	7	112	0.00	30.011 
11:30	65.6	65.6	65.6	50	46.5	3	7	112	0.00	30.002 
11:35	65.6	65.6	65.6	52	47.5	4	11	112	0.00	30.002 
11:40	66.0	66.0	66.0	48	45.7	4	7	112	0.00	30.002 
11:45	66.3	66.3	66.3	48	46.0	5	12	90	0.00	30.002 
11:50	66.3	66.3	66.3	50	47.1	4	10	90	0.00	30.002 
11:55	66.6	66.6	66.6	50	47.4	3	11	90	0.00	30.002 
12:00	67.3	67.3	67.3	48	46.9	4	11	90	0.00	30.000 
12:05	67.6	67.6	67.6	48	47.2	3	6	90	0.00	30.000 
12:10	67.4	67.4	67.4	48	47.0	4	11	90	0.00	30.000 
12:15	67.4	67.4	67.4	48	47.0	4	10	90	0.00	30.002 
12:20	67.3	67.3	67.3	49	47.5	4	9	90	0.00	30.002 
12:25	67.1	67.1	67.1	48	46.7	4	10	112	0.00	30.002 
12:30	66.9	66.9	66.9	49	47.1	3	7	90	0.00	29.997 
12:35	66.8	66.8	66.8	48	46.5	4	11	112	0.00	29.997 
12:40	66.9	66.9	66.9	50	47.6	2	8	112	0.00	29.997 
12:45	67.3	67.3	67.3	48	46.9	4	11	90	0.00	29.991 
12:50	66.8	66.8	66.8	47	45.9	4	7	112	0.00	29.991 
12:55	66.9	66.9	66.9	48	46.6	3	9	112	0.00	29.991 
13:00	67.9	67.9	67.9	50	48.6	3	9	112	0.00	29.988 
13:05	68.8	68.8	68.8	46	47.2	2	7	112	0.00	29.988 
13:10	69.4	69.4	69.4	46	47.7	3	7	112	0.00	29.988 
13:15	69.9	69.9	69.9	44	47.0	3	9	90	0.00	29.981 
13:20	70.1	70.1	70.1	44	47.2	2	9	90	0.00	29.981 
13:25	70.1	70.1	70.1	43	46.6	4	13	90	0.00	29.981 
13:30	69.3	69.3	69.3	44	46.4	4	10	90	0.00	29.976 
13:35	69.4	69.4	69.4	46	47.7	2	9	45	0.00	29.976 
13:40	69.8	69.8	69.8	43	46.3	3	12	112	0.00	29.976 
13:45	69.6	69.6	69.6	43	46.1	4	9	112	0.00	29.970 
13:50	69.9	69.9	69.9	44	47.0	3	6	90	0.00	29.970 
13:55	69.6	69.6	69.6	44	46.7	3	8	112	0.00	29.970 
14:00	69.6	69.6	69.6	45	47.3	4	10	112	0.00	29.976 
14:05	69.8	69.8	69.8	43	46.3	4	10	112	0.00	29.976 
14:10	69.6	69.6	69.6	44	46.7	5	11	112	0.00	29.976 
14:15	69.4	69.4	69.4	45	47.1	4	11	112	0.00	29.981 
14:20	69.4	69.4	69.4	42	45.3	3	8	112	0.00	29.981 
14:25	69.6	69.6	69.6	43	46.1	3	6	112	0.00	29.981 
14:30	69.9	69.9	69.9	43	46.4	3	7	112	0.00	29.977 
14:35	69.8	69.8	69.8	44	46.9	4	10	112	0.00	29.977 
14:40	69.8	69.8	69.8	42	45.7	3	7	90	0.00	29.977 
14:45	69.6	69.6	69.6	43	46.1	2	7	112	0.00	29.975 
14:50	69.6	69.6	69.6	41	44.8	4	9	112	0.00	29.975 
14:55	69.6	69.6	69.6	43	46.1	3	12	112	0.00	29.975 
15:00	70.1	70.1	70.1	44	47.2	2	6	112	0.00	29.973 
15:05	70.4	70.4	70.4	42	46.2	2	5	112	0.00	29.973 
15:10	70.6	70.6	70.6	41	45.7	2	10	112	0.00	29.973 
15:15	70.9	70.9	70.9	40	45.4	2	7	112	0.00	29.971 
15:20	70.9	70.9	70.9	40	45.4	4	12	112	0.00	29.971 
15:25	70.4	70.4	70.4	39	44.2	3	7	112	0.00	29.971 
15:30	70.1	70.1	70.1	41	45.3	4	10	90	0.00	29.970 
15:35	69.9	69.9	69.9	39	43.8	4	9	90	0.00	29.970 
15:40	69.8	69.8	69.8	42	45.7	2	6	90	0.00	29.970 
15:45	69.9	69.9	69.9	42	45.8	2	5	112	0.00	29.966 
15:50	70.3	70.3	70.3	41	45.5	2	6	112	0.00	29.966 
15:55	70.1	70.1	70.1	40	44.6	3	7	90	0.00	29.966 
16:00	69.8	69.8	69.8	40	44.4	3	9	90	0.00	29.960 
16:05	69.6	69.6	69.6	40	44.2	2	3	90	0.00	29.960 
16:10	69.6	69.6	69.6	41	44.8	2	4	90	0.00	29.960 
16:15	69.6	69.6	69.6	40	44.2	3	6	90	0.00	29.961 
16:20	69.6	69.6	69.6	39	43.5	2	4	112	0.00	29.961 
16:25	69.6	69.6	69.6	39	43.5	2	6	90	0.00	29.961 
16:30	69.8	69.8	69.8	39	43.7	3	7	112	0.00	29.957 
16:35	69.8	69.8	69.8	40	44.4	3	7	90	0.00	29.957 
16:40	69.8	69.8	69.8	38	43.0	3	7	112	0.00	29.957 
16:45	69.8	69.8	69.8	38	43.0	2	7	112	0.00	29.957 
16:50	69.8	69.8	69.8	37	42.3	1	4	90	0.00	29.957 
16:55	69.6	69.6	69.6	36	41.5	2	4	270	0.00	29.957 
17:00	69.6	69.6	69.6	37	42.2	1	3	112	0.00	29.957 
17:05	69.6	69.6	69.6	38	42.9	1	4	112	0.00	29.957 
17:10	69.6	69.6	69.6	38	42.9	0	2	90	0.00	29.957 
17:15	69.4	69.4	69.4	38	42.7	0	2	90	0.00	29.959 
17:20	69.4	69.4	69.4	39	43.4	0	1	90	0.00	29.959 
17:25	69.3	69.3	69.3	38	42.6	0	2	90	0.00	29.959 
17:30	69.3	69.3	69.3	39	43.3	0	1	90	0.00	29.959 
17:35	69.4	69.4	69.4	39	43.4	0	2	135	0.00	29.959 
17:40	69.4	69.4	69.4	40	44.0	0	3	135	0.00	29.959 
17:45	69.4	69.4	69.4	42	45.3	2	4	135	0.00	29.968 
17:50	69.1	69.1	69.1	39	43.1	3	13	112	0.00	29.968 
17:55	68.6	68.6	68.6	39	42.6	4	8	112	0.00	29.968 
18:00	68.3	68.3	68.3	40	43.0	1	4	112	0.00	29.974 
18:05	68.1	68.1	68.1	41	43.5	1	3	135	0.00	29.974 
18:10	67.9	67.9	67.9	41	43.3	0	3	135	0.00	29.974 
18:15	67.8	67.8	67.8	43	44.5	0	2	135	0.00	29.974 
18:20	67.8	67.8	67.8	43	44.5	0	1	135	0.00	29.974 
18:25	67.4	67.4	67.4	45	45.3	0	1	135	0.00	29.974 
18:30	67.3	67.3	67.3	45	45.2	0	1	135	0.00	29.968 
18:35	67.1	67.1	67.1	45	45.0	0	2	135	0.00	29.968 
18:40	66.9	66.9	66.9	46	45.4	0	0	---	0.00	29.968 
18:45	66.8	66.8	66.8	46	45.3	0	0	---	0.00	29.974 
18:50	66.6	66.6	66.6	46	45.2	0	1	135	0.00	29.974 
18:55	66.4	66.4	66.4	48	46.1	0	0	---	0.00	29.974 
19:00	66.1	66.1	66.1	49	46.4	0	0	---	0.00	29.973 
19:05	66.0	66.0	66.0	46	44.6	0	0	---	0.00	29.973 
19:10	65.8	65.8	65.8	47	45.0	0	1	135	0.00	29.973 
19:15	65.8	65.8	65.8	49	46.1	0	0	---	0.00	29.961 
19:20	65.6	65.6	65.6	47	44.8	0	1	135	0.00	29.961 
19:25	65.6	65.6	65.6	49	45.9	0	1	135	0.00	29.961 
19:30	65.6	65.6	65.6	47	44.8	0	1	135	0.00	29.961 
19:35	65.5	65.5	65.5	48	45.3	0	1	135	0.00	29.961 
19:40	65.3	65.3	65.3	48	45.1	0	1	135	0.00	29.961 
19:45	65.3	65.3	65.3	46	44.0	0	1	135	0.00	29.960 
19:50	65.2	65.2	65.2	46	43.9	0	2	135	0.00	29.960 
19:55	65.2	65.2	65.2	45	43.3	0	2	22	0.00	29.960 
20:00	65.0	65.0	65.0	45	43.1	1	4	22	0.00	29.969 
20:05	65.0	65.0	65.0	45	43.1	0	3	90	0.00	29.969 
20:10	64.8	64.8	64.8	45	43.0	0	3	90	0.00	29.969 
20:15	64.7	64.7	64.7	44	42.3	0	3	90	0.00	29.968 
20:20	64.5	64.5	64.5	44	42.1	0	2	90	0.00	29.968 
20:25	64.3	64.3	64.3	43	41.3	0	2	90	0.00	29.968 
20:30	64.3	64.3	64.3	43	41.3	0	1	90	0.00	29.969 
20:35	64.2	64.2	64.2	44	41.8	0	4	90	0.00	29.969 
20:40	64.0	64.0	64.0	42	40.4	1	6	112	0.00	29.969 
20:45	64.2	64.2	64.2	41	40.0	2	5	112	0.00	29.971 
20:50	64.2	64.2	64.2	41	40.0	1	10	112	0.00	29.971 
20:55	64.2	64.2	64.2	41	40.0	0	2	112	0.00	29.971 
21:00	63.9	63.9	63.9	43	41.0	0	1	112	0.00	29.973 
21:05	63.7	63.7	63.7	43	40.8	0	2	112	0.00	29.973 
21:10	63.5	63.5	63.5	43	40.6	0	1	112	0.00	29.973 
21:15	63.2	63.2	63.2	43	40.3	0	2	112	0.00	29.973 
21:20	63.1	63.1	63.1	42	39.6	0	2	112	0.00	29.973 
21:25	62.9	62.9	62.9	41	38.8	1	4	112	0.00	29.973 
21:30	62.9	62.9	62.9	42	39.5	1	3	135	0.00	29.976 
21:35	62.9	62.9	62.9	41	38.8	1	4	112	0.00	29.976 
21:40	62.7	62.7	62.7	42	39.3	1	5	112	0.00	29.976 
21:45	62.6	62.6	62.6	43	39.8	1	4	112	0.00	29.974 
21:50	62.4	62.4	62.4	44	40.2	1	3	112	0.00	29.974 
21:55	62.3	62.3	62.3	44	40.1	0	3	112	0.00	29.974 
22:00	62.1	62.1	62.1	44	39.9	0	4	135	0.00	29.975 
22:05	62.0	62.0	62.0	44	39.8	0	4	135	0.00	29.975 
22:10	61.8	61.8	61.8	44	39.7	0	3	135	0.00	29.975 
22:15	61.6	61.6	61.6	44	39.5	1	5	135	0.00	29.977 
22:20	61.6	61.6	61.6	45	40.0	1	4	90	0.00	29.977 
22:25	61.5	61.5	61.5	45	40.0	1	3	90	0.00	29.977 
22:30	61.3	61.3	61.3	46	40.3	0	2	90	0.00	29.974 
22:35	61.2	61.2	61.2	45	39.7	1	4	90	0.00	29.974 
22:40	61.0	61.0	61.0	44	38.9	1	3	90	0.00	29.974 
22:45	61.0	61.0	61.0	45	39.5	1	4	90	0.00	29.970 
22:50	60.9	60.9	60.9	44	38.8	1	6	90	0.00	29.970 
22:55	60.9	60.9	60.9	45	39.4	1	4	112	0.00	29.970 
23:00	60.9	60.9	60.9	45	39.4	0	2	68	0.00	29.968 
23:05	60.7	60.7	60.7	44	38.7	1	4	22	0.00	29.968 
23:10	60.5	60.5	60.5	45	39.1	1	3	22	0.00	29.968 
23:15	60.4	60.4	60.4	46	39.5	0	3	22	0.00	29.961 
23:20	60.4	60.4	60.4	46	39.5	1	3	90	0.00	29.961 
23:25	60.4	60.4	60.4	46	39.5	1	2	90	0.00	29.961 
23:30	60.2	60.2	60.2	47	39.9	0	2	225	0.00	29.960 
23:35	60.1	60.1	60.1	46	39.2	0	4	112	0.00	29.960 
23:40	60.1	60.1	60.1	46	39.2	1	10	112	0.00	29.960 
23:45	60.1	60.1	60.1	46	39.2	0	2	45	0.00	29.956 
23:50	60.1	60.1	60.1	47	39.8	1	4	45	0.00	29.956 
23:55	60.1	60.1	60.1	47	39.8	1	4	22	0.00	29.956 

CoCoRaHS
IN-AL-39
A2 Web Hosting
Creative Commons License
GoDaddy
search engine by freefind advanced

loaded 2018-11-13 17:05:35 • last modified 2010-11-18 10:43:29
Privacy PolicyDisclaimer
• wx.awcolley.com is powered by PmWiki v.2002016 •
• all content (unless otherwise noted) © 2018 A W Colley